ADDS TAF Data INFO
IDs: Format: Raw Decoded Include METARs

Data at: 1214 UTC 18 Nov 2017

KABQ 181152Z 35015KT 10SM CLR 04/M10 A3024 RMK AO2 SLP203 T00441100 10128 20044 53023

KABQ 181120Z 1812/1912 35012G20KT P6SM FEW060
  FM181600 35006KT P6SM SKC
  FM190200 02004KT P6SM SKC